Time;durP1;ratioP1;P1;durP2;ratioP2;P2;SDS_P1;SDS_P2;PMS_P1;PMS_P2;Temp;Humidity;BMP_temperature;BMP_pressure;BME280_temperature;BME280_humidity;BME280_pressure;Samples;Min_cycle;Max_cycle;Signal;HPM_P1;HPM_P2
2022/09/22 00:00:58;;;;;;;3.87;2.43;;;9.00;99.90;;;;;;5054800;28;20199;-84
2022/09/22 00:03:24;;;;;;;4.03;2.57;;;8.90;99.90;;;;;;5054150;28;20419;-85
2022/09/22 00:06:00;;;;;;;4.00;2.50;;;8.70;99.90;;;;;;5036741;28;20418;-84
2022/09/22 00:08:29;;;;;;;4.70;3.37;;;8.60;99.90;;;;;;5054354;28;20455;-84
2022/09/22 00:11:17;;;;;;;5.70;2.53;;;8.60;99.90;;;;;;5054486;28;20417;-84
2022/09/22 00:13:54;;;;;;;4.53;1.90;;;8.50;99.90;;;;;;5054544;28;20455;-84
2022/09/22 00:16:30;;;;;;;5.00;2.70;;;8.50;99.90;;;;;;5054188;28;20441;-84
2022/09/22 00:18:57;;;;;;;4.07;2.23;;;8.40;99.90;;;;;;5052696;28;20506;-85
2022/09/22 00:21:26;;;;;;;4.83;2.37;;;8.30;99.90;;;;;;5054321;28;20410;-85
2022/09/22 00:23:52;;;;;;;3.60;2.10;;;8.30;99.90;;;;;;5053377;28;20465;-86
2022/09/22 00:26:20;;;;;;;4.37;2.97;;;8.30;99.90;;;;;;5054208;28;20943;-85
2022/09/22 00:28:47;;;;;;;5.23;2.77;;;8.20;99.90;;;;;;5054030;28;20980;-85
2022/09/22 00:31:16;;;;;;;4.03;1.83;;;8.20;99.90;;;;;;5053976;28;20506;-85
2022/09/22 00:33:42;;;;;;;3.97;2.07;;;8.20;99.90;;;;;;5053671;28;20403;-85
2022/09/22 00:36:08;;;;;;;4.40;2.90;;;8.10;99.90;;;;;;5053873;28;20418;-84
2022/09/22 00:38:36;;;;;;;3.10;1.87;;;8.10;99.90;;;;;;5053823;28;20478;-85
2022/09/22 00:41:03;;;;;;;4.40;2.60;;;8.10;99.90;;;;;;5053756;28;20412;-85
2022/09/22 00:43:32;;;;;;;4.20;2.50;;;8.00;99.90;;;;;;5053651;28;20532;-85
2022/09/22 00:46:04;;;;;;;4.53;2.07;;;8.00;99.90;;;;;;5053624;28;20486;-86
2022/09/22 00:48:32;;;;;;;3.23;1.97;;;8.00;99.90;;;;;;5053341;28;21335;-85
2022/09/22 00:51:00;;;;;;;4.07;2.13;;;8.00;99.90;;;;;;5035782;28;20432;-85
2022/09/22 00:53:27;;;;;;;3.67;2.00;;;7.90;99.90;;;;;;5035739;28;20423;-85
2022/09/22 00:55:57;;;;;;;2.63;1.73;;;7.90;99.90;;;;;;5053625;28;20562;-85
2022/09/22 00:58:31;;;;;;;4.13;2.43;;;7.90;99.90;;;;;;5053504;28;20419;-85
2022/09/22 01:00:57;;;;;;;3.23;1.90;;;7.80;99.90;;;;;;5052273;28;20788;-85
2022/09/22 01:03:25;;;;;;;2.90;1.43;;;7.80;99.90;;;;;;5053088;28;20406;-85
2022/09/22 01:05:53;;;;;;;3.07;1.70;;;7.80;99.90;;;;;;5053429;28;20420;-85
2022/09/22 01:08:23;;;;;;;1.70;1.60;;;7.70;99.90;;;;;;5035450;28;20427;-85
2022/09/22 01:10:49;;;;;;;2.23;1.13;;;7.70;99.90;;;;;;5053489;28;20749;-85
2022/09/22 01:13:39;;;;;;;2.70;1.70;;;7.70;99.90;;;;;;5053367;28;20508;-85
2022/09/22 01:16:27;;;;;;;2.43;1.20;;;7.60;99.90;;;;;;5051799;28;20429;-85
2022/09/22 01:19:11;;;;;;;2.73;1.70;;;7.60;99.90;;;;;;5034836;28;20420;-84
2022/09/22 01:21:45;;;;;;;4.07;2.23;;;7.50;99.90;;;;;;5051724;28;20905;-83
2022/09/22 01:24:40;;;;;;;2.70;1.30;;;7.50;99.90;;;;;;5053101;28;20421;-84
2022/09/22 01:27:28;;;;;;;2.57;2.10;;;7.50;99.90;;;;;;5053102;28;20439;-85
2022/09/22 01:30:15;;;;;;;3.00;1.30;;;7.40;99.90;;;;;;5052908;28;20466;-85
2022/09/22 01:33:03;;;;;;;3.70;2.40;;;7.40;99.90;;;;;;5052997;28;20419;-83
2022/09/22 01:35:54;;;;;;;3.40;1.80;;;7.40;99.90;;;;;;5052692;28;20420;-83
2022/09/22 01:38:33;;;;;;;1.67;0.83;;;7.40;99.90;;;;;;5053119;28;20514;-83
2022/09/22 01:41:06;;;;;;;2.90;1.73;;;7.40;99.90;;;;;;5035014;28;20427;-85
2022/09/22 01:43:50;;;;;;;4.17;2.23;;;7.40;99.90;;;;;;5052814;28;20942;-84
2022/09/22 01:46:31;;;;;;;1.97;1.17;;;7.40;99.90;;;;;;5052622;28;20953;-84
2022/09/22 01:49:01;;;;;;;2.17;1.80;;;7.40;99.90;;;;;;5035233;28;20471;-84
2022/09/22 01:51:30;;;;;;;2.73;1.97;;;7.30;99.90;;;;;;5052769;28;20411;-84
2022/09/22 01:54:03;;;;;;;1.07;0.73;;;7.30;99.90;;;;;;5051452;28;20559;-83
2022/09/22 01:56:32;;;;;;;2.83;1.20;;;7.20;99.90;;;;;;5052688;28;20908;-85
2022/09/22 01:59:01;;;;;;;3.57;1.77;;;7.30;99.90;;;;;;5052623;28;20429;-84
2022/09/22 02:01:32;;;;;;;4.20;2.63;;;7.40;99.90;;;;;;5034859;28;20429;-84
2022/09/22 02:04:20;;;;;;;4.10;1.97;;;7.40;99.90;;;;;;5051076;28;20498;-85
2022/09/22 02:06:51;;;;;;;3.20;1.60;;;7.50;99.90;;;;;;5034731;28;20454;-85
2022/09/22 02:09:22;;;;;;;4.70;3.20;;;7.50;99.90;;;;;;5052570;28;20470;-84
2022/09/22 02:11:48;;;;;;;4.50;2.07;;;7.50;99.90;;;;;;5051202;28;20866;-84
2022/09/22 02:14:15;;;;;;;3.33;1.77;;;7.40;99.90;;;;;;5052654;28;20466;-85
2022/09/22 02:16:40;;;;;;;2.90;2.00;;;7.30;99.90;;;;;;5034628;28;20203;-84
2022/09/22 02:19:12;;;;;;;2.40;1.33;;;7.20;99.90;;;;;;5034381;28;20430;-84
2022/09/22 02:21:39;;;;;;;2.20;1.13;;;7.20;99.90;;;;;;5052631;28;20680;-84
2022/09/22 02:24:05;;;;;;;3.23;1.43;;;7.30;99.90;;;;;;5052288;28;20408;-84
2022/09/22 02:26:34;;;;;;;4.70;1.30;;;7.20;99.90;;;;;;5052496;28;20435;-84
2022/09/22 02:29:07;;;;;;;4.07;1.67;;;7.20;99.90;;;;;;5051261;28;20573;-84
2022/09/22 02:31:36;;;;;;;3.30;1.23;;;7.20;99.90;;;;;;5052272;28;20419;-85
2022/09/22 02:34:04;;;;;;;2.50;1.50;;;7.10;99.90;;;;;;5050759;28;20481;-84
2022/09/22 02:36:54;;;;;;;1.73;1.03;;;7.00;99.90;;;;;;5052057;28;20811;-85
2022/09/22 02:39:48;;;;;;;4.53;1.73;;;7.00;99.90;;;;;;5052625;28;20426;-84
2022/09/22 02:42:29;;;;;;;3.30;1.80;;;7.10;99.90;;;;;;5053086;28;20414;-84
2022/09/22 02:45:17;;;;;;;4.03;1.60;;;7.10;99.90;;;;;;5034577;28;20816;-84
2022/09/22 02:47:50;;;;;;;2.50;1.67;;;7.00;99.90;;;;;;5064683;28;20408;-84
2022/09/22 02:50:20;;;;;;;1.80;1.37;;;6.90;99.90;;;;;;5056580;28;20462;-84
2022/09/22 02:52:49;;;;;;;2.07;1.10;;;7.00;99.90;;;;;;5056148;28;20407;-84
2022/09/22 02:55:14;;;;;;;1.97;0.97;;;7.00;99.90;;;;;;5038308;28;20429;-84
2022/09/22 02:57:40;;;;;;;3.80;1.50;;;6.90;99.90;;;;;;5055964;28;20763;-85
2022/09/22 03:00:06;;;;;;;2.67;1.40;;;6.90;99.90;;;;;;5037820;28;20172;-84
2022/09/22 03:02:38;;;;;;;2.23;1.57;;;6.80;99.90;;;;;;5055768;28;20260;-84
2022/09/22 03:05:04;;;;;;;3.17;1.37;;;6.80;99.90;;;;;;5055379;28;20427;-83
2022/09/22 03:07:29;;;;;;;1.90;1.20;;;6.80;99.90;;;;;;5055571;28;20453;-84
2022/09/22 03:09:55;;;;;;;2.50;1.17;;;6.80;99.90;;;;;;5055451;28;20564;-84
2022/09/22 03:12:20;;;;;;;5.20;1.17;;;6.80;99.90;;;;;;5055599;28;20564;-84
2022/09/22 03:14:45;;;;;;;2.60;1.30;;;6.70;99.90;;;;;;5055599;28;20181;-84
2022/09/22 03:17:11;;;;;;;2.30;1.70;;;6.70;99.90;;;;;;5055424;28;20525;-83
2022/09/22 03:19:36;;;;;;;1.87;1.13;;;6.70;99.90;;;;;;5037184;28;20177;-85
2022/09/22 03:22:02;;;;;;;2.27;1.53;;;6.70;99.90;;;;;;5055382;28;20177;-85
2022/09/22 03:24:28;;;;;;;2.53;1.40;;;6.70;99.90;;;;;;5055237;28;20169;-85
2022/09/22 03:26:53;;;;;;;1.57;0.73;;;6.60;99.90;;;;;;5055428;28;20176;-85
2022/09/22 03:29:18;;;;;;;1.43;1.03;;;6.60;99.90;;;;;;5055391;28;20197;-85
2022/09/22 03:31:44;;;;;;;2.87;1.00;;;6.60;99.90;;;;;;5037463;28;20181;-86
2022/09/22 03:34:09;;;;;;;4.10;1.53;;;6.60;99.90;;;;;;5055014;28;20181;-86
2022/09/22 03:36:35;;;;;;;1.27;0.80;;;6.50;99.90;;;;;;5055312;28;20248;-86
2022/09/22 03:39:00;;;;;;;2.60;1.60;;;6.50;99.90;;;;;;5055313;28;20176;-87
2022/09/22 03:41:26;;;;;;;2.57;1.20;;;6.40;99.90;;;;;;5037401;28;20173;-86
2022/09/22 03:43:52;;;;;;;2.03;0.73;;;6.50;99.90;;;;;;5045220;28;20227;-86
2022/09/22 03:46:17;;;;;;;2.83;1.43;;;6.50;99.90;;;;;;5035264;28;20225;-87
2022/09/22 03:48:43;;;;;;;1.67;1.27;;;6.40;99.90;;;;;;5034764;28;20456;-86
2022/09/22 03:51:08;;;;;;;1.60;0.70;;;6.40;99.90;;;;;;5035161;28;20176;-86
2022/09/22 03:53:34;;;;;;;2.03;1.50;;;6.40;99.90;;;;;;5035096;28;20172;-86
2022/09/22 03:56:08;;;;;;;2.53;0.97;;;6.40;99.90;;;;;;5035042;28;20173;-86
2022/09/22 03:58:35;;;;;;;1.90;0.93;;;6.30;99.90;;;;;;5016155;28;20761;-87
2022/09/22 04:01:00;;;;;;;2.10;1.60;;;6.30;99.90;;;;;;5035000;28;20869;-86
2022/09/22 04:03:26;;;;;;;3.70;1.30;;;6.30;99.90;;;;;;5034445;28;20419;-87
2022/09/22 04:05:52;;;;;;;2.07;1.40;;;6.40;99.90;;;;;;5017029;28;20176;-85
2022/09/22 04:08:17;;;;;;;3.57;2.10;;;6.50;99.90;;;;;;5034614;28;20547;-86
2022/09/22 04:10:44;;;;;;;3.63;1.50;;;6.50;99.90;;;;;;5034699;28;20239;-86
2022/09/22 04:13:13;;;;;;;1.93;1.57;;;6.40;99.90;;;;;;5016839;28;20175;-84
2022/09/22 04:15:39;;;;;;;2.00;1.30;;;6.40;99.90;;;;;;5034552;28;20416;-85
2022/09/22 04:18:05;;;;;;;1.70;1.30;;;6.30;99.90;;;;;;5034199;28;20466;-84
2022/09/22 04:20:30;;;;;;;2.83;1.30;;;6.30;99.90;;;;;;5034377;28;20477;-85
2022/09/22 04:22:57;;;;;;;2.20;1.20;;;6.30;99.90;;;;;;5016875;28;20200;-86
2022/09/22 04:25:23;;;;;;;2.10;0.80;;;6.30;99.90;;;;;;5034362;28;20413;-86
2022/09/22 04:27:49;;;;;;;1.30;1.00;;;6.30;99.90;;;;;;5034272;28;20174;-86
2022/09/22 04:30:15;;;;;;;2.10;1.50;;;6.30;99.90;;;;;;5033957;28;20217;-85
2022/09/22 04:32:40;;;;;;;2.03;1.20;;;6.20;99.90;;;;;;5033807;28;20480;-86
2022/09/22 04:35:07;;;;;;;5.17;1.50;;;6.20;99.90;;;;;;5034275;28;20235;-86
2022/09/22 04:37:32;;;;;;;2.87;1.40;;;6.20;99.90;;;;;;5034007;28;20573;-85
2022/09/22 04:39:58;;;;;;;2.10;1.17;;;6.20;99.90;;;;;;5034046;28;20452;-84
2022/09/22 04:42:24;;;;;;;1.47;1.10;;;6.20;99.90;;;;;;5033942;28;20175;-84
2022/09/22 04:44:50;;;;;;;0.90;0.80;;;6.20;99.90;;;;;;5051464;28;20973;-84
2022/09/22 04:47:15;;;;;;;1.50;1.17;;;6.20;99.90;;;;;;5053867;28;20200;-84
2022/09/22 04:49:44;;;;;;;1.30;0.63;;;6.10;99.90;;;;;;5053366;28;20263;-83
2022/09/22 04:52:09;;;;;;;1.60;0.80;;;6.10;99.90;;;;;;5053707;28;20238;-84
2022/09/22 04:54:35;;;;;;;1.43;0.70;;;6.20;99.90;;;;;;5053569;28;20504;-84
2022/09/22 04:57:01;;;;;;;2.50;1.33;;;6.10;99.90;;;;;;5053681;28;20266;-84
2022/09/22 04:59:28;;;;;;;2.10;1.27;;;6.10;99.90;;;;;;5053398;28;20204;-83
2022/09/22 05:01:54;;;;;;;2.10;1.33;;;6.20;99.90;;;;;;5035554;28;20427;-84
2022/09/22 05:04:19;;;;;;;1.40;0.97;;;6.20;99.90;;;;;;5052905;28;20419;-84
2022/09/22 05:06:45;;;;;;;2.70;1.53;;;6.20;99.90;;;;;;5053381;28;20260;-84
2022/09/22 05:09:11;;;;;;;1.73;1.13;;;6.20;99.90;;;;;;5053106;28;20200;-85
2022/09/22 05:11:37;;;;;;;3.77;1.57;;;6.20;99.90;;;;;;5035541;28;20442;-84
2022/09/22 05:14:02;;;;;;;2.10;1.17;;;6.10;99.90;;;;;;5035335;28;20170;-84
2022/09/22 05:16:28;;;;;;;1.97;1.20;;;6.10;99.90;;;;;;5053203;28;20172;-83
2022/09/22 05:18:55;;;;;;;1.97;1.10;;;6.10;99.90;;;;;;5034668;28;20635;-84
2022/09/22 05:21:20;;;;;;;1.90;1.47;;;6.10;99.90;;;;;;5053067;28;20410;-83
2022/09/22 05:23:46;;;;;;;1.27;0.93;;;6.10;99.90;;;;;;5053509;28;20467;-85
2022/09/22 05:26:11;;;;;;;2.33;0.97;;;6.10;99.90;;;;;;5053480;28;20164;-84
2022/09/22 05:28:37;;;;;;;2.80;1.50;;;6.10;99.90;;;;;;5052797;28;20547;-85
2022/09/22 05:31:03;;;;;;;2.13;1.23;;;6.10;99.90;;;;;;5053060;28;20178;-84
2022/09/22 05:33:29;;;;;;;3.47;1.63;;;6.10;99.90;;;;;;5034794;28;20546;-84
2022/09/22 05:35:54;;;;;;;2.70;1.27;;;6.10;99.90;;;;;;5034976;28;20509;-84
2022/09/22 05:38:20;;;;;;;1.70;0.80;;;6.10;99.90;;;;;;5052821;28;20175;-85
2022/09/22 05:40:46;;;;;;;2.53;1.13;;;6.10;99.90;;;;;;5052843;28;20207;-84
2022/09/22 05:43:12;;;;;;;1.53;1.00;;;6.20;99.90;;;;;;5052635;28;20211;-84
2022/09/22 05:45:38;;;;;;;1.23;1.13;;;6.20;99.90;;;;;;5052784;28;20542;-85
2022/09/22 05:48:03;;;;;;;1.77;1.17;;;6.20;99.90;;;;;;5052557;28;20490;-83
2022/09/22 05:50:29;;;;;;;2.57;1.10;;;6.20;99.90;;;;;;5052895;28;20179;-84
2022/09/22 05:53:05;;;;;;;2.27;0.80;;;6.40;99.90;;;;;;5052725;28;20553;-84
2022/09/22 05:55:31;;;;;;;1.10;1.00;;;6.40;99.90;;;;;;5052698;28;20178;-84
2022/09/22 05:57:57;;;;;;;1.83;0.90;;;6.50;99.90;;;;;;5052764;28;20936;-84
2022/09/22 06:00:22;;;;;;;2.10;1.10;;;6.60;99.90;;;;;;5052677;28;20270;-84
2022/09/22 06:02:48;;;;;;;1.30;0.90;;;6.70;99.90;;;;;;5052037;28;20180;-85
2022/09/22 06:05:13;;;;;;;0.87;0.70;;;6.80;99.90;;;;;;5052551;28;20179;-83
2022/09/22 06:07:39;;;;;;;1.47;0.90;;;7.00;99.90;;;;;;5052396;28;20186;-85
2022/09/22 06:10:05;;;;;;;3.07;1.23;;;7.10;99.90;;;;;;5052569;28;20163;-84
2022/09/22 06:12:30;;;;;;;3.00;1.17;;;7.20;99.90;;;;;;5052548;28;20203;-83
2022/09/22 06:14:56;;;;;;;2.20;1.20;;;7.20;99.90;;;;;;5052297;28;20414;-84
2022/09/22 06:17:22;;;;;;;4.13;2.10;;;7.20;99.90;;;;;;5034285;28;20593;-86
2022/09/22 06:19:49;;;;;;;1.20;0.80;;;7.30;99.90;;;;;;5034610;28;20240;-83
2022/09/22 06:22:15;;;;;;;2.13;0.53;;;7.40;99.90;;;;;;5054758;28;20176;-85
2022/09/22 06:24:41;;;;;;;7.07;1.10;;;7.50;99.90;;;;;;5056221;28;20421;-86
2022/09/22 06:27:07;;;;;;;2.90;1.07;;;7.70;99.90;;;;;;5038408;28;20444;-85
2022/09/22 06:29:32;;;;;;;7.73;1.57;;;8.20;99.90;;;;;;5056345;28;20202;-85
2022/09/22 06:31:57;;;;;;;3.30;1.67;;;9.00;99.90;;;;;;5056224;28;20176;-85
2022/09/22 06:34:25;;;;;;;2.87;1.80;;;9.80;99.90;;;;;;5038035;28;20661;-86
2022/09/22 06:36:53;;;;;;;2.33;1.50;;;11.80;63.20;;;;;;5038658;28;20177;-85
2022/09/22 06:39:18;;;;;;;1.80;1.07;;;12.70;99.90;;;;;;5056349;28;20478;-86
2022/09/22 06:41:44;;;;;;;4.30;1.53;;;13.80;1.00;;;;;;5056333;28;20417;-85
2022/09/22 06:44:11;;;;;;;2.30;0.90;;;14.20;1.00;;;;;;5038107;28;20236;-86
2022/09/22 06:46:37;;;;;;;1.93;0.70;;;15.00;52.70;;;;;;5056055;28;20265;-85
2022/09/22 06:49:03;;;;;;;1.87;0.70;;;15.80;1.00;;;;;;5055964;28;20422;-84
2022/09/22 06:51:31;;;;;;;3.33;1.00;;;15.80;1.00;;;;;;5056170;28;20404;-84
2022/09/22 06:53:58;;;;;;;3.47;1.10;;;16.10;1.00;;;;;;5056033;28;20168;-82
2022/09/22 06:56:28;;;;;;;2.37;0.90;;;16.20;99.90;;;;;;5055734;28;20517;-84
2022/09/22 06:58:57;;;;;;;2.23;0.50;;;16.20;99.90;;;;;;5055946;28;20446;-83
2022/09/22 07:01:23;;;;;;;2.63;0.80;;;16.90;99.90;;;;;;5054570;28;20514;-84
2022/09/22 07:03:49;;;;;;;1.67;0.80;;;16.90;99.90;;;;;;5055391;28;20405;-87
2022/09/22 07:06:16;;;;;;;3.00;1.13;;;17.50;99.90;;;;;;5055721;28;20184;-85
2022/09/22 07:08:43;;;;;;;3.73;0.80;;;17.50;99.90;;;;;;5055746;28;20412;-85
2022/09/22 07:11:09;;;;;;;1.90;0.83;;;18.00;99.90;;;;;;5038479;28;20859;-81
2022/09/22 07:13:37;;;;;;;3.10;0.70;;;18.00;99.90;;;;;;5062681;28;20418;-82
2022/09/22 07:16:06;;;;;;;5.03;1.07;;;18.50;99.90;;;;;;5057996;28;20468;-80
2022/09/22 07:18:32;;;;;;;2.50;1.13;;;18.40;99.90;;;;;;5054925;28;20418;-86
2022/09/22 07:21:07;;;;;;;1.90;0.73;;;18.50;99.90;;;;;;5055327;28;20774;-85
2022/09/22 07:23:34;;;;;;;3.03;0.70;;;18.30;99.90;;;;;;5055319;28;20408;-81
2022/09/22 07:26:02;;;;;;;2.10;0.90;;;18.60;99.90;;;;;;5055387;28;20964;-84
2022/09/22 07:28:28;;;;;;;3.67;1.03;;;19.10;99.90;;;;;;5055315;28;20415;-81
2022/09/22 07:31:12;;;;;;;6.70;1.53;;;19.00;99.90;;;;;;5055297;28;20416;-82
2022/09/22 07:33:39;;;;;;;3.00;1.03;;;19.30;81.90;;;;;;5054732;28;20458;-81
2022/09/22 07:36:13;;;;;;;1.73;0.53;;;20.10;87.80;;;;;;5055206;28;20424;-83
2022/09/22 07:38:40;;;;;;;2.00;0.50;;;20.00;57.30;;;;;;5055208;28;20428;-83
2022/09/22 07:41:12;;;;;;;2.70;0.97;;;19.60;95.70;;;;;;5055159;28;20448;-83
2022/09/22 07:43:39;;;;;;;1.73;0.97;;;20.50;76.50;;;;;;5036907;28;20462;-81
2022/09/22 07:46:05;;;;;;;2.60;0.77;;;21.00;44.10;;;;;;5036833;28;20479;-80
2022/09/22 07:48:40;;;;;;;1.63;0.70;;;20.40;61.50;;;;;;5054466;28;20711;-81
2022/09/22 07:51:11;;;;;;;2.20;0.93;;;21.10;56.90;;;;;;5054983;28;20452;-81
2022/09/22 07:53:38;;;;;;;3.67;2.23;;;21.40;55.00;;;;;;5054898;28;20495;-82
2022/09/22 07:56:12;;;;;;;4.97;1.90;;;21.70;37.10;;;;;;5054892;28;20420;-83
2022/09/22 07:58:48;;;;;;;1.90;1.03;;;21.80;30.10;;;;;;5054823;28;20557;-82
2022/09/22 08:01:14;;;;;;;2.03;1.27;;;21.80;28.80;;;;;;5054703;28;20424;-83
2022/09/22 08:03:40;;;;;;;1.50;0.70;;;22.00;23.90;;;;;;5036554;28;20408;-82
2022/09/22 08:06:10;;;;;;;1.43;0.70;;;22.10;22.90;;;;;;5054497;28;20926;-83
2022/09/22 08:08:56;;;;;;;1.77;1.07;;;21.80;28.60;;;;;;5054614;28;20193;-83
2022/09/22 08:11:24;;;;;;;1.73;1.07;;;22.00;26.00;;;;;;5036628;28;20427;-83
2022/09/22 08:13:55;;;;;;;2.50;1.10;;;21.90;20.10;;;;;;5053256;28;20954;-82
2022/09/22 08:16:22;;;;;;;2.00;0.80;;;22.30;18.70;;;;;;5054381;28;20409;-81
2022/09/22 08:18:57;;;;;;;1.83;1.07;;;22.50;24.30;;;;;;5053791;28;20991;-82
2022/09/22 08:21:25;;;;;;;1.93;0.80;;;21.80;9.00;;;;;;5054434;28;20423;-81
2022/09/22 08:23:51;;;;;;;4.13;0.70;;;22.60;21.80;;;;;;5054142;28;20408;-81
2022/09/22 08:26:21;;;;;;;1.30;1.00;;;22.80;19.60;;;;;;5054278;28;20412;-82
2022/09/22 08:28:53;;;;;;;2.03;0.63;;;23.10;16.00;;;;;;5054093;28;20414;-84
2022/09/22 08:31:19;;;;;;;2.37;1.13;;;23.70;14.80;;;;;;5052902;28;20474;-83
2022/09/22 08:33:45;;;;;;;3.50;0.93;;;23.70;12.30;;;;;;5053739;28;20422;-82
2022/09/22 08:36:11;;;;;;;1.83;1.10;;;23.60;7.00;;;;;;5053961;28;20462;-83
2022/09/22 08:38:37;;;;;;;1.50;0.97;;;23.20;5.70;;;;;;5053828;28;20409;-83
2022/09/22 08:41:20;;;;;;;2.80;0.80;;;23.20;1.30;;;;;;5053908;28;20177;-85
2022/09/22 08:44:06;;;;;;;2.43;1.27;;;24.00;10.10;;;;;;5053164;28;20460;-83
2022/09/22 08:46:33;;;;;;;1.50;0.73;;;23.80;3.20;;;;;;5042841;28;20455;-83
2022/09/22 08:52:15;;;;;;;1.37;0.80;;;24.00;1.00;;;;;;5054010;28;20443;-84
2022/09/22 08:54:43;;;;;;;1.70;0.43;;;24.50;6.70;;;;;;5053662;28;20424;-87
2022/09/22 08:57:27;;;;;;;2.23;0.80;;;24.20;1.00;;;;;;5053606;28;20419;-88
2022/09/22 09:00:09;;;;;;;2.23;0.80;;;24.30;1.00;;;;;;5052267;28;20554;-85
2022/09/22 09:02:45;;;;;;;1.80;0.87;;;24.30;1.00;;;;;;5035311;28;21017;-84
2022/09/22 09:05:45;;;;;;;2.10;1.13;;;24.60;1.00;;;;;;5053502;28;20458;-86
2022/09/22 09:08:50;;;;;;;2.17;1.20;;;24.60;1.00;;;;;;5053481;28;20408;-81
2022/09/22 09:11:37;;;;;;;2.30;0.70;;;24.80;1.90;;;;;;5053440;28;20497;-82
2022/09/22 09:14:24;;;;;;;2.10;0.87;;;25.20;1.70;;;;;;5053641;28;20516;-81
2022/09/22 09:17:10;;;;;;;2.50;0.63;;;25.50;4.50;;;;;;5035328;28;20838;-86
2022/09/22 09:19:50;;;;;;;1.80;0.60;;;25.40;1.00;;;;;;5053362;28;20470;-83
2022/09/22 09:22:26;;;;;;;2.30;0.80;;;25.50;1.00;;;;;;5048629;28;20416;-81
2022/09/22 09:25:18;;;;;;;2.17;0.70;;;25.10;1.00;;;;;;5024963;28;20836;-82
2022/09/22 09:27:48;;;;;;;1.77;0.63;;;25.00;1.00;;;;;;4995025;28;20425;-83
2022/09/22 09:30:19;;;;;;;1.37;0.50;;;25.10;1.00;;;;;;4994750;28;20564;-83
2022/09/22 09:32:50;;;;;;;1.90;0.67;;;25.30;1.00;;;;;;5011876;28;20410;-84
2022/09/22 09:35:33;;;;;;;1.60;0.50;;;25.50;1.00;;;;;;5012516;28;20418;-83
2022/09/22 09:38:00;;;;;;;2.07;0.80;;;25.70;1.00;;;;;;5012988;28;20410;-82
2022/09/22 09:40:29;;;;;;;1.20;0.53;;;25.50;1.00;;;;;;5013153;28;20450;-91
2022/09/22 09:43:00;;;;;;;2.83;0.80;;;25.70;1.00;;;;;;5012677;28;20418;-82
2022/09/22 09:45:37;;;;;;;2.60;0.50;;;25.30;1.00;;;;;;5012322;28;20421;-82
2022/09/22 09:48:26;;;;;;;2.43;0.67;;;25.40;1.00;;;;;;5012642;28;21202;-86
2022/09/22 09:50:52;;;;;;;2.00;0.50;;;25.60;1.00;;;;;;5014399;28;20442;-89
2022/09/22 09:53:32;;;;;;;2.40;0.70;;;25.70;1.00;;;;;;5013883;28;20498;-92
2022/09/22 09:55:57;;;;;;;2.60;0.40;;;26.20;1.00;;;;;;5012836;28;20187;-89
2022/09/22 10:01:12;;;;;;;0.73;0.37;;;25.10;1.00;;;;;;5014444;28;20233;-81
2022/09/22 10:03:46;;;;;;;2.23;0.87;;;25.40;1.00;;;;;;5011832;28;20436;-81
2022/09/22 10:06:13;;;;;;;2.97;0.70;;;25.80;1.00;;;;;;5013085;28;20412;-89
2022/09/22 10:08:49;;;;;;;1.50;0.60;;;26.00;1.00;;;;;;5013345;28;20406;-92
2022/09/22 10:11:15;;;;;;;1.17;0.30;;;25.40;1.00;;;;;;5014569;28;20468;-92
2022/09/22 10:13:42;;;;;;;2.63;0.57;;;25.80;1.00;;;;;;5013825;28;20414;-90
2022/09/22 10:16:25;;;;;;;1.00;0.57;;;25.70;1.00;;;;;;5013455;28;20175;-90
2022/09/22 10:19:02;;;;;;;1.50;0.40;;;25.70;1.00;;;;;;5014750;28;20414;-86
2022/09/22 10:21:28;;;;;;;1.60;0.40;;;25.90;1.00;;;;;;5013494;28;20440;-87
2022/09/22 10:23:56;;;;;;;1.43;0.30;;;25.90;1.00;;;;;;5014037;28;20418;-84
2022/09/22 10:26:26;;;;;;;1.53;0.30;;;25.80;1.00;;;;;;5013168;28;20509;-89
2022/09/22 10:29:15;;;;;;;1.77;0.47;;;25.90;1.00;;;;;;4995877;28;21037;-84
2022/09/22 10:31:58;;;;;;;6.07;0.70;;;25.80;1.00;;;;;;5013570;28;20813;-92
2022/09/22 10:34:33;;;;;;;2.03;0.50;;;25.70;1.00;;;;;;5014334;28;20414;-90
2022/09/22 10:37:00;;;;;;;0.70;0.50;;;25.80;1.00;;;;;;5013622;28;20409;-90
2022/09/22 10:39:35;;;;;;;2.57;0.40;;;26.10;1.00;;;;;;5011539;28;20421;-91
2022/09/22 10:42:11;;;;;;;1.30;0.43;;;25.70;1.00;;;;;;5012942;28;20405;-86
2022/09/22 10:44:37;;;;;;;1.07;0.37;;;26.10;1.00;;;;;;4994781;28;21035;-83
2022/09/22 10:47:22;;;;;;;2.20;0.30;;;26.00;1.00;;;;;;5011650;28;20513;-80
2022/09/22 10:50:07;;;;;;;4.07;0.57;;;26.10;1.00;;;;;;5011934;28;20202;-84
2022/09/22 10:53:16;;;;;;;2.40;0.40;;;25.60;1.00;;;;;;5010830;28;20918;-85
2022/09/22 10:55:51;;;;;;;1.57;0.53;;;25.70;1.00;;;;;;4969117;28;20479;-85
2022/09/22 10:58:49;;;;;;;2.40;0.40;;;25.80;1.00;;;;;;5012142;28;20414;-87
2022/09/22 11:01:46;;;;;;;2.50;0.60;;;26.30;1.00;;;;;;5012088;28;20420;-84
2022/09/22 11:04:20;;;;;;;2.33;0.47;;;26.40;1.00;;;;;;5012168;28;20497;-86
2022/09/22 11:12:15;;;;;;;3.00;0.63;;;25.60;1.00;;;;;;4992689;28;20465;-85
2022/09/22 11:13:04;;;;;;;1.37;0.40;;;25.70;1.00;;;;;;5015514;28;20413;-83
2022/09/22 11:16:01;;;;;;;0.80;0.40;;;26.10;1.00;;;;;;5015632;28;20475;-83
2022/09/22 11:18:56;;;;;;;0.50;0.20;;;26.20;1.00;;;;;;5013714;28;20232;-80
2022/09/22 11:21:43;;;;;;;1.33;0.30;;;26.10;1.00;;;;;;5015355;28;20983;-86
2022/09/22 11:24:39;;;;;;;1.90;0.20;;;25.60;1.00;;;;;;5015434;28;20919;-85
2022/09/22 11:27:14;;;;;;;0.70;0.20;;;25.00;1.00;;;;;;5014399;28;20456;-87
2022/09/22 11:30:07;;;;;;;2.10;0.47;;;25.70;1.00;;;;;;5015511;28;20465;-85
2022/09/22 11:33:01;;;;;;;1.97;0.50;;;25.80;1.00;;;;;;5015233;28;20429;-87
2022/09/22 11:35:38;;;;;;;1.47;0.37;;;25.20;1.00;;;;;;5015062;28;20421;-80
2022/09/22 11:38:11;;;;;;;0.70;0.20;;;26.10;1.00;;;;;;5015032;28;20409;-80
2022/09/22 11:41:07;;;;;;;0.40;0.20;;;26.40;1.00;;;;;;5015025;28;20453;-82
2022/09/22 11:43:45;;;;;;;1.53;0.20;;;25.80;1.00;;;;;;5007776;28;20605;-86
2022/09/22 11:46:28;;;;;;;1.90;0.40;;;25.80;1.00;;;;;;4995488;28;20418;-84
2022/09/22 11:49:20;;;;;;;3.17;0.50;;;25.40;1.00;;;;;;4995476;28;20461;-80
2022/09/22 11:52:10;;;;;;;1.30;0.37;;;25.40;1.00;;;;;;4994154;28;20514;-86
2022/09/22 11:55:09;;;;;;;1.80;0.50;;;24.60;1.00;;;;;;4993943;28;20473;-86
2022/09/22 11:57:39;;;;;;;2.83;1.03;;;22.60;1.00;;;;;;4994915;28;20411;-87
2022/09/22 12:00:15;;;;;;;1.03;0.50;;;24.30;1.00;;;;;;4993812;28;20919;-86
2022/09/22 12:02:53;;;;;;;2.83;0.33;;;24.60;1.00;;;;;;4994846;28;20414;-79
2022/09/22 12:05:29;;;;;;;1.80;0.40;;;25.00;1.00;;;;;;4994716;28;20406;-84
2022/09/22 12:08:06;;;;;;;0.87;0.37;;;25.10;1.00;;;;;;4994827;28;20505;-85
2022/09/22 12:10:38;;;;;;;0.73;0.30;;;25.10;1.00;;;;;;4993436;28;20474;-81
2022/09/22 12:13:11;;;;;;;2.93;0.40;;;24.90;1.00;;;;;;4994603;28;20411;-80
2022/09/22 12:15:46;;;;;;;0.67;0.33;;;24.90;1.00;;;;;;4994531;28;21092;-81
2022/09/22 12:18:24;;;;;;;1.80;0.47;;;25.20;1.00;;;;;;4994151;28;20425;-81
2022/09/22 12:21:00;;;;;;;3.20;0.37;;;24.90;1.00;;;;;;4994094;28;20417;-80
2022/09/22 12:23:42;;;;;;;1.50;0.50;;;24.40;1.00;;;;;;4994389;28;20413;-80
2022/09/22 12:26:14;;;;;;;1.50;0.30;;;23.50;1.00;;;;;;4994485;28;20415;-81
2022/09/22 12:28:47;;;;;;;0.67;0.30;;;22.50;1.00;;;;;;4994074;28;20418;-85
2022/09/22 12:31:15;;;;;;;0.97;0.23;;;22.70;1.00;;;;;;4994073;28;21148;-81
2022/09/22 12:33:52;;;;;;;0.90;0.30;;;23.40;1.00;;;;;;5028035;28;20746;-81
2022/09/22 12:36:30;;;;;;;1.00;0.33;;;23.80;1.00;;;;;;5016566;28;20447;-83
2022/09/22 12:39:17;;;;;;;1.97;0.30;;;23.80;1.00;;;;;;5034410;28;20424;-91
2022/09/22 12:41:47;;;;;;;1.30;0.20;;;23.10;1.00;;;;;;5034241;28;20509;-89
2022/09/22 12:44:23;;;;;;;1.10;0.20;;;23.60;1.00;;;;;;5038552;28;20476;-82
2022/09/22 12:46:50;;;;;;;1.03;0.20;;;24.40;1.00;;;;;;5016460;28;20515;-84
2022/09/22 12:49:20;;;;;;;2.53;0.40;;;23.80;1.00;;;;;;5035048;28;20457;-83
2022/09/22 12:51:45;;;;;;;1.33;0.43;;;24.10;1.00;;;;;;5016984;28;20436;-88
2022/09/22 12:54:26;;;;;;;1.47;0.30;;;23.50;1.00;;;;;;5016751;28;20437;-85
2022/09/22 12:57:00;;;;;;;2.63;0.20;;;21.80;1.00;;;;;;5016354;28;20178;-83
2022/09/22 12:59:38;;;;;;;1.90;0.40;;;21.30;1.00;;;;;;5016147;28;20440;-89
2022/09/22 13:02:10;;;;;;;1.73;0.50;;;20.40;1.00;;;;;;5015431;28;20424;-82
2022/09/22 13:04:36;;;;;;;2.07;0.30;;;21.10;1.00;;;;;;5015539;28;20428;-83
2022/09/22 13:07:01;;;;;;;2.20;0.40;;;20.40;1.00;;;;;;5032639;28;20405;-82
2022/09/22 13:09:29;;;;;;;1.90;0.60;;;20.20;1.00;;;;;;5031986;28;20198;-81
2022/09/22 13:12:18;;;;;;;1.30;0.20;;;19.70;1.00;;;;;;5032730;28;20189;-82
2022/09/22 13:15:10;;;;;;;0.67;0.20;;;19.90;1.00;;;;;;5033007;28;20500;-84
2022/09/22 13:17:48;;;;;;;1.50;0.40;;;19.70;1.00;;;;;;5044457;28;20507;-80
2022/09/22 13:20:23;;;;;;;1.90;0.60;;;19.40;1.00;;;;;;5052646;28;20420;-83
2022/09/22 13:22:50;;;;;;;1.27;0.60;;;19.30;1.00;;;;;;5051227;28;20415;-83
2022/09/22 13:25:27;;;;;;;2.13;0.40;;;19.20;1.00;;;;;;5052161;28;20421;-81
2022/09/22 13:28:08;;;;;;;1.63;0.40;;;19.10;1.00;;;;;;5031592;28;20445;-81
2022/09/22 13:30:35;;;;;;;1.70;0.20;;;19.20;1.00;;;;;;5032341;28;20636;-82